Main page
METAR-TAF:

METAR-TAF

Airports :

Campbeltown, Scotland

Campbeltown Airport

latitude: 55-26-14N, longitude: 005-41-11W, elevation: 13 m

Current weather observation

The report was made 4 hours and 45 minutes ago, at 17:20 UTC
Wind 2 kt from the Southeast
Temperature 9°C
Humidity 93%
Pressure 1017 hPa
Visibility 10 km or more
Few clouds at a height of 1400 ft
Broken clouds at a height of 2100 ft

METAR: EGEC 191720Z 13002KT 9999 FEW014 BKN021 09/08 Q1017

Time: 22:05 (22:05 UTC)

Forecast

The report was made 7 hours and 57 minutes ago, at 14:08 UTC
Forecast valid from 19 at 15 UTC to 19 at 18 UTC
Wind 6 kt from the West/Southwest
Visibility 10 km or more
Scattered clouds at a height of 1400 ft
Probability 30% :
Temporary
from 19 at 15 UTC to 19 at 18 UTC
Visibility: 8000 m
Broken clouds at a height of 900 ft
light rain

TAF: EGEC 191408Z 1915/1918 25006KT 9999 SCT014 PROB30 TEMPO 1915/1918 8000 -RA BKN009

Weather observations and forecasts of more than 4000 airports (METAR and TAF reports).

The available stations are represented by yellow and red dots on the map.

Hover mouse over dot to see the name of the station.

Then click to see weather observations and forecasts.

To change the map : click on the green buttons with a black cross to zoom in, on the green button with a dash to zoom out, or on the green arrows for adjacent maps.


METAR-TAF: